sensor_id;sensor_type;location;lat;lon;timestamp;pressure;altitude;pressure_sealevel;temperature;humidity
3260;BME280;68938;48.150;14.004;2023-12-14T00:01:35;96806.47;;;10.78;72.57
3260;BME280;68938;48.150;14.004;2023-12-14T00:04:04;96809.84;;;10.78;72.57
3260;BME280;68938;48.150;14.004;2023-12-14T00:06:31;96811.81;;;10.73;72.24
3260;BME280;68938;48.150;14.004;2023-12-14T00:08:58;96816.13;;;10.73;72.54
3260;BME280;68938;48.150;14.004;2023-12-14T00:11:24;96820.69;;;10.67;72.69
3260;BME280;68938;48.150;14.004;2023-12-14T00:13:51;96822.63;;;10.62;72.95
3260;BME280;68938;48.150;14.004;2023-12-14T00:16:18;96827.06;;;10.76;72.69
3260;BME280;68938;48.150;14.004;2023-12-14T00:18:45;96834.59;;;10.46;74.19
3260;BME280;68938;48.150;14.004;2023-12-14T00:21:12;96821.75;;;10.63;73.49
3260;BME280;68938;48.150;14.004;2023-12-14T00:23:39;96825.66;;;10.71;73.32
3260;BME280;68938;48.150;14.004;2023-12-14T00:26:06;96831.66;;;10.70;73.05
3260;BME280;68938;48.150;14.004;2023-12-14T00:28:33;96832.53;;;10.70;72.78
3260;BME280;68938;48.150;14.004;2023-12-14T00:31:00;96824.31;;;10.63;72.98
3260;BME280;68938;48.150;14.004;2023-12-14T00:33:27;96827.53;;;10.67;73.10
3260;BME280;68938;48.150;14.004;2023-12-14T00:35:54;96834.22;;;10.70;72.91
3260;BME280;68938;48.150;14.004;2023-12-14T00:38:21;96841.91;;;10.70;72.73
3260;BME280;68938;48.150;14.004;2023-12-14T00:40:48;96837.66;;;10.70;72.84
3260;BME280;68938;48.150;14.004;2023-12-14T00:43:15;96835.81;;;10.72;72.79
3260;BME280;68938;48.150;14.004;2023-12-14T00:45:42;96835.75;;;10.74;72.71
3260;BME280;68938;48.150;14.004;2023-12-14T00:48:09;96838.31;;;10.74;72.68
3260;BME280;68938;48.150;14.004;2023-12-14T00:50:36;96847.97;;;10.68;72.80
3260;BME280;68938;48.150;14.004;2023-12-14T00:53:03;96850.69;;;10.65;73.13
3260;BME280;68938;48.150;14.004;2023-12-14T00:55:30;96862.69;;;10.65;73.30
3260;BME280;68938;48.150;14.004;2023-12-14T00:57:57;96868.78;;;10.62;73.09
3260;BME280;68938;48.150;14.004;2023-12-14T01:00:23;96869.47;;;10.49;73.47
3260;BME280;68938;48.150;14.004;2023-12-14T01:02:50;96870.47;;;10.46;73.84
3260;BME280;68938;48.150;14.004;2023-12-14T01:05:17;96881.22;;;10.53;73.43
3260;BME280;68938;48.150;14.004;2023-12-14T01:07:44;96882.25;;;10.50;73.62
3260;BME280;68938;48.150;14.004;2023-12-14T01:10:11;96888.91;;;10.18;74.48
3260;BME280;68938;48.150;14.004;2023-12-14T01:12:38;96888.25;;;10.32;74.20
3260;BME280;68938;48.150;14.004;2023-12-14T01:15:06;96888.50;;;10.27;74.37
3260;BME280;68938;48.150;14.004;2023-12-14T01:17:33;96892.69;;;10.28;74.43
3260;BME280;68938;48.150;14.004;2023-12-14T01:20:00;96895.47;;;10.24;74.32
3260;BME280;68938;48.150;14.004;2023-12-14T01:22:27;96903.03;;;10.08;74.77
3260;BME280;68938;48.150;14.004;2023-12-14T01:24:54;96897.13;;;10.25;74.29
3260;BME280;68938;48.150;14.004;2023-12-14T01:27:20;96903.34;;;10.38;73.63
3260;BME280;68938;48.150;14.004;2023-12-14T01:29:47;96899.72;;;10.42;73.57
3260;BME280;68938;48.150;14.004;2023-12-14T01:32:14;96903.28;;;10.39;73.43
3260;BME280;68938;48.150;14.004;2023-12-14T01:34:41;96907.34;;;10.43;73.24
3260;BME280;68938;48.150;14.004;2023-12-14T01:37:08;96919.78;;;10.34;73.18
3260;BME280;68938;48.150;14.004;2023-12-14T01:39:35;96912.63;;;10.40;73.73
3260;BME280;68938;48.150;14.004;2023-12-14T01:42:02;96914.94;;;10.45;72.73
3260;BME280;68938;48.150;14.004;2023-12-14T01:44:29;96919.00;;;10.49;73.00
3260;BME280;68938;48.150;14.004;2023-12-14T01:46:56;96925.59;;;10.37;73.04
3260;BME280;68938;48.150;14.004;2023-12-14T01:49:22;96927.75;;;10.28;73.41
3260;BME280;68938;48.150;14.004;2023-12-14T01:51:49;96935.38;;;10.29;73.43
3260;BME280;68938;48.150;14.004;2023-12-14T01:54:16;96927.38;;;10.35;73.34
3260;BME280;68938;48.150;14.004;2023-12-14T01:56:43;96931.38;;;10.41;72.95
3260;BME280;68938;48.150;14.004;2023-12-14T01:59:10;96939.91;;;10.41;72.78
3260;BME280;68938;48.150;14.004;2023-12-14T02:01:43;96940.72;;;10.42;72.91
3260;BME280;68938;48.150;14.004;2023-12-14T02:04:12;96952.41;;;10.48;72.96
3260;BME280;68938;48.150;14.004;2023-12-14T02:06:41;96945.03;;;10.41;72.88
3260;BME280;68938;48.150;14.004;2023-12-14T02:09:08;96952.94;;;10.37;73.23
3260;BME280;68938;48.150;14.004;2023-12-14T02:11:35;96958.81;;;10.39;73.14
3260;BME280;68938;48.150;14.004;2023-12-14T02:14:06;96962.00;;;10.44;73.01
3260;BME280;68938;48.150;14.004;2023-12-14T02:16:35;96962.44;;;10.35;73.08
3260;BME280;68938;48.150;14.004;2023-12-14T02:19:02;96963.19;;;10.37;73.48
3260;BME280;68938;48.150;14.004;2023-12-14T02:21:29;96962.91;;;10.24;73.93
3260;BME280;68938;48.150;14.004;2023-12-14T02:23:56;96970.75;;;10.21;73.98
3260;BME280;68938;48.150;14.004;2023-12-14T02:26:23;96971.56;;;10.21;74.18
3260;BME280;68938;48.150;14.004;2023-12-14T02:28:50;96970.59;;;10.26;74.13
3260;BME280;68938;48.150;14.004;2023-12-14T02:31:18;96977.47;;;10.24;73.78
3260;BME280;68938;48.150;14.004;2023-12-14T02:33:46;96977.91;;;10.33;73.79
3260;BME280;68938;48.150;14.004;2023-12-14T02:36:13;96982.25;;;10.31;73.64
3260;BME280;68938;48.150;14.004;2023-12-14T02:38:40;96979.91;;;10.27;74.19
3260;BME280;68938;48.150;14.004;2023-12-14T02:41:07;96989.44;;;10.23;73.89
3260;BME280;68938;48.150;14.004;2023-12-14T02:43:34;96988.88;;;10.35;73.79
3260;BME280;68938;48.150;14.004;2023-12-14T02:46:01;96985.97;;;10.43;73.18
3260;BME280;68938;48.150;14.004;2023-12-14T02:48:28;96992.63;;;10.47;73.16
3260;BME280;68938;48.150;14.004;2023-12-14T02:50:55;96986.66;;;10.47;73.08
3260;BME280;68938;48.150;14.004;2023-12-14T02:53:22;96996.00;;;10.48;72.52
3260;BME280;68938;48.150;14.004;2023-12-14T02:55:49;96991.03;;;10.44;72.96
3260;BME280;68938;48.150;14.004;2023-12-14T02:58:18;96992.75;;;10.44;72.93
3260;BME280;68938;48.150;14.004;2023-12-14T03:00:45;97000.44;;;10.44;73.55
3260;BME280;68938;48.150;14.004;2023-12-14T03:03:12;97005.72;;;10.41;73.20
3260;BME280;68938;48.150;14.004;2023-12-14T03:05:39;97000.59;;;10.41;73.04
3260;BME280;68938;48.150;14.004;2023-12-14T03:08:06;97006.63;;;10.40;72.89
3260;BME280;68938;48.150;14.004;2023-12-14T03:10:33;97009.19;;;10.40;72.60
3260;BME280;68938;48.150;14.004;2023-12-14T03:13:00;97010.94;;;10.39;73.12
3260;BME280;68938;48.150;14.004;2023-12-14T03:15:27;97009.34;;;10.37;73.02
3260;BME280;68938;48.150;14.004;2023-12-14T03:17:53;97012.63;;;10.39;73.13
3260;BME280;68938;48.150;14.004;2023-12-14T03:20:20;97020.56;;;10.34;73.04
3260;BME280;68938;48.150;14.004;2023-12-14T03:22:47;97026.59;;;10.33;73.11
3260;BME280;68938;48.150;14.004;2023-12-14T03:25:14;97021.47;;;10.33;73.19
3260;BME280;68938;48.150;14.004;2023-12-14T03:27:41;97033.59;;;10.30;73.42
3260;BME280;68938;48.150;14.004;2023-12-14T03:30:08;97019.97;;;10.29;73.57
3260;BME280;68938;48.150;14.004;2023-12-14T03:32:36;97038.06;;;10.25;73.42
3260;BME280;68938;48.150;14.004;2023-12-14T03:35:04;97041.53;;;10.24;73.72
3260;BME280;68938;48.150;14.004;2023-12-14T03:37:31;97037.94;;;10.28;73.90
3260;BME280;68938;48.150;14.004;2023-12-14T03:39:58;97045.59;;;10.29;73.88
3260;BME280;68938;48.150;14.004;2023-12-14T03:42:25;97050.75;;;10.28;73.51
3260;BME280;68938;48.150;14.004;2023-12-14T03:44:52;97044.66;;;10.30;73.23
3260;BME280;68938;48.150;14.004;2023-12-14T03:47:19;97049.34;;;10.20;73.59
3260;BME280;68938;48.150;14.004;2023-12-14T03:49:46;97058.69;;;10.21;74.02
3260;BME280;68938;48.150;14.004;2023-12-14T03:52:13;97050.13;;;10.23;73.81
3260;BME280;68938;48.150;14.004;2023-12-14T03:54:39;97058.81;;;10.18;73.99
3260;BME280;68938;48.150;14.004;2023-12-14T03:57:07;97060.50;;;10.19;73.88
3260;BME280;68938;48.150;14.004;2023-12-14T03:59:34;97065.63;;;10.19;73.97
3260;BME280;68938;48.150;14.004;2023-12-14T04:02:02;97061.63;;;10.14;74.44
3260;BME280;68938;48.150;14.004;2023-12-14T04:04:29;97074.97;;;10.20;73.91
3260;BME280;68938;48.150;14.004;2023-12-14T04:06:56;97076.72;;;10.20;74.13
3260;BME280;68938;48.150;14.004;2023-12-14T04:09:22;97076.16;;;10.13;74.52
3260;BME280;68938;48.150;14.004;2023-12-14T04:11:49;97080.03;;;10.22;74.23
3260;BME280;68938;48.150;14.004;2023-12-14T04:14:16;97091.25;;;10.19;73.87
3260;BME280;68938;48.150;14.004;2023-12-14T04:16:43;97085.72;;;10.29;73.91
3260;BME280;68938;48.150;14.004;2023-12-14T04:19:10;97087.31;;;10.31;73.61
3260;BME280;68938;48.150;14.004;2023-12-14T04:21:37;97095.84;;;10.32;73.56
3260;BME280;68938;48.150;14.004;2023-12-14T04:24:04;97104.22;;;10.16;74.08
3260;BME280;68938;48.150;14.004;2023-12-14T04:26:31;97102.19;;;10.23;73.91
3260;BME280;68938;48.150;14.004;2023-12-14T04:28:58;97107.69;;;10.15;73.84
3260;BME280;68938;48.150;14.004;2023-12-14T04:31:25;97121.50;;;9.92;75.11
3260;BME280;68938;48.150;14.004;2023-12-14T04:33:52;97120.72;;;9.90;75.27
3260;BME280;68938;48.150;14.004;2023-12-14T04:36:19;97126.22;;;10.02;74.74
3260;BME280;68938;48.150;14.004;2023-12-14T04:38:46;97129.47;;;10.05;74.52
3260;BME280;68938;48.150;14.004;2023-12-14T04:41:13;97132.19;;;10.02;74.82
3260;BME280;68938;48.150;14.004;2023-12-14T04:43:40;97139.53;;;10.10;74.51
3260;BME280;68938;48.150;14.004;2023-12-14T04:46:07;97141.25;;;10.09;74.42
3260;BME280;68938;48.150;14.004;2023-12-14T04:48:34;97142.13;;;10.08;74.31
3260;BME280;68938;48.150;14.004;2023-12-14T04:51:01;97143.59;;;10.14;74.00
3260;BME280;68938;48.150;14.004;2023-12-14T04:53:28;97149.81;;;10.08;74.33
3260;BME280;68938;48.150;14.004;2023-12-14T04:55:55;97147.91;;;10.13;73.88
3260;BME280;68938;48.150;14.004;2023-12-14T04:58:22;97152.88;;;10.16;73.82
3260;BME280;68938;48.150;14.004;2023-12-14T05:00:49;97154.75;;;10.13;74.31
3260;BME280;68938;48.150;14.004;2023-12-14T05:03:16;97158.63;;;10.21;73.65
3260;BME280;68938;48.150;14.004;2023-12-14T05:05:42;97163.53;;;10.28;73.35
3260;BME280;68938;48.150;14.004;2023-12-14T05:08:09;97168.97;;;10.20;73.21
3260;BME280;68938;48.150;14.004;2023-12-14T05:10:36;97172.81;;;10.30;72.81
3260;BME280;68938;48.150;14.004;2023-12-14T05:13:03;97176.19;;;10.31;72.88
3260;BME280;68938;48.150;14.004;2023-12-14T05:15:30;97184.16;;;10.04;73.08
3260;BME280;68938;48.150;14.004;2023-12-14T05:17:57;97185.97;;;10.02;73.35
3260;BME280;68938;48.150;14.004;2023-12-14T05:20:24;97183.00;;;10.11;73.01
3260;BME280;68938;48.150;14.004;2023-12-14T05:22:51;97191.94;;;9.82;74.10
3260;BME280;68938;48.150;14.004;2023-12-14T05:25:18;97192.19;;;9.96;73.45
3260;BME280;68938;48.150;14.004;2023-12-14T05:27:45;97189.03;;;9.90;73.85
3260;BME280;68938;48.150;14.004;2023-12-14T05:30:12;97196.69;;;9.91;73.64
3260;BME280;68938;48.150;14.004;2023-12-14T05:32:39;97197.06;;;9.82;73.81
3260;BME280;68938;48.150;14.004;2023-12-14T05:35:07;97204.63;;;9.85;73.92
3260;BME280;68938;48.150;14.004;2023-12-14T05:37:35;97200.06;;;9.71;73.84
3260;BME280;68938;48.150;14.004;2023-12-14T05:40:02;97206.53;;;9.80;73.85
3260;BME280;68938;48.150;14.004;2023-12-14T05:42:29;97209.41;;;9.93;73.37
3260;BME280;68938;48.150;14.004;2023-12-14T05:44:56;97217.31;;;9.88;73.24
3260;BME280;68938;48.150;14.004;2023-12-14T05:47:28;97220.56;;;9.92;73.28
3260;BME280;68938;48.150;14.004;2023-12-14T05:49:55;97224.66;;;9.96;73.17
3260;BME280;68938;48.150;14.004;2023-12-14T05:52:22;97230.69;;;9.95;73.18
3260;BME280;68938;48.150;14.004;2023-12-14T05:54:49;97233.09;;;9.98;73.01
3260;BME280;68938;48.150;14.004;2023-12-14T05:57:16;97234.94;;;9.74;74.11
3260;BME280;68938;48.150;14.004;2023-12-14T05:59:42;97244.56;;;9.89;73.74
3260;BME280;68938;48.150;14.004;2023-12-14T06:02:09;97239.78;;;9.60;74.89
3260;BME280;68938;48.150;14.004;2023-12-14T06:04:37;97246.25;;;9.48;76.54
3260;BME280;68938;48.150;14.004;2023-12-14T06:07:06;97243.16;;;9.40;77.09
3260;BME280;68938;48.150;14.004;2023-12-14T06:09:34;97256.13;;;9.35;77.71
3260;BME280;68938;48.150;14.004;2023-12-14T06:12:02;97262.44;;;9.48;76.57
3260;BME280;68938;48.150;14.004;2023-12-14T06:14:30;97264.59;;;9.37;76.96
3260;BME280;68938;48.150;14.004;2023-12-14T06:16:58;97263.22;;;9.29;78.28
3260;BME280;68938;48.150;14.004;2023-12-14T06:19:25;97268.69;;;9.41;77.89
3260;BME280;68938;48.150;14.004;2023-12-14T06:21:51;97269.84;;;9.34;77.96
3260;BME280;68938;48.150;14.004;2023-12-14T06:24:18;97276.91;;;9.49;77.52
3260;BME280;68938;48.150;14.004;2023-12-14T06:26:45;97270.63;;;9.57;76.83
3260;BME280;68938;48.150;14.004;2023-12-14T06:29:12;97286.13;;;9.54;77.23
3260;BME280;68938;48.150;14.004;2023-12-14T06:31:40;97289.69;;;9.71;76.22
3260;BME280;68938;48.150;14.004;2023-12-14T06:34:07;97296.06;;;9.61;76.37
3260;BME280;68938;48.150;14.004;2023-12-14T06:36:34;97298.63;;;9.61;76.73
3260;BME280;68938;48.150;14.004;2023-12-14T06:39:01;97301.06;;;9.64;76.15
3260;BME280;68938;48.150;14.004;2023-12-14T06:41:28;97306.03;;;9.89;75.40
3260;BME280;68938;48.150;14.004;2023-12-14T06:43:55;97310.41;;;9.65;75.77
3260;BME280;68938;48.150;14.004;2023-12-14T06:46:22;97310.09;;;9.73;75.81
3260;BME280;68938;48.150;14.004;2023-12-14T06:48:49;97320.72;;;9.42;76.29
3260;BME280;68938;48.150;14.004;2023-12-14T06:51:16;97316.53;;;9.39;76.46
3260;BME280;68938;48.150;14.004;2023-12-14T06:53:43;97329.34;;;9.39;76.34
3260;BME280;68938;48.150;14.004;2023-12-14T06:56:10;97340.19;;;9.46;75.91
3260;BME280;68938;48.150;14.004;2023-12-14T06:58:39;97337.63;;;9.68;74.78
3260;BME280;68938;48.150;14.004;2023-12-14T07:01:11;97342.22;;;9.82;74.28
3260;BME280;68938;48.150;14.004;2023-12-14T07:03:42;97357.31;;;9.88;74.01
3260;BME280;68938;48.150;14.004;2023-12-14T07:06:13;97354.91;;;9.85;74.13
3260;BME280;68938;48.150;14.004;2023-12-14T07:08:41;97365.53;;;9.74;74.40
3260;BME280;68938;48.150;14.004;2023-12-14T07:11:10;97371.44;;;9.76;74.28
3260;BME280;68938;48.150;14.004;2023-12-14T07:13:38;97379.84;;;9.80;74.13
3260;BME280;68938;48.150;14.004;2023-12-14T07:16:07;97382.81;;;9.69;74.07
3260;BME280;68938;48.150;14.004;2023-12-14T07:18:37;97380.44;;;9.64;74.68
3260;BME280;68938;48.150;14.004;2023-12-14T07:21:05;97384.06;;;9.37;75.17
3260;BME280;68938;48.150;14.004;2023-12-14T07:23:34;97398.22;;;9.22;76.10
3260;BME280;68938;48.150;14.004;2023-12-14T07:26:02;97393.06;;;9.47;75.38
3260;BME280;68938;48.150;14.004;2023-12-14T07:28:32;97399.13;;;9.44;75.21
3260;BME280;68938;48.150;14.004;2023-12-14T07:30:59;97406.31;;;9.57;75.24
3260;BME280;68938;48.150;14.004;2023-12-14T07:33:26;97407.31;;;9.53;74.91
3260;BME280;68938;48.150;14.004;2023-12-14T07:35:53;97418.97;;;9.61;74.82
3260;BME280;68938;48.150;14.004;2023-12-14T07:38:20;97418.91;;;9.39;75.28
3260;BME280;68938;48.150;14.004;2023-12-14T07:40:47;97426.75;;;9.58;74.68
3260;BME280;68938;48.150;14.004;2023-12-14T07:43:14;97426.94;;;9.76;73.90
3260;BME280;68938;48.150;14.004;2023-12-14T07:45:41;97431.81;;;9.60;74.20
3260;BME280;68938;48.150;14.004;2023-12-14T07:48:08;97448.28;;;9.53;74.42
3260;BME280;68938;48.150;14.004;2023-12-14T07:50:35;97441.03;;;9.64;74.38
3260;BME280;68938;48.150;14.004;2023-12-14T07:53:02;97444.59;;;9.60;73.78
3260;BME280;68938;48.150;14.004;2023-12-14T07:55:29;97456.16;;;9.23;75.38
3260;BME280;68938;48.150;14.004;2023-12-14T07:57:57;97456.06;;;9.49;74.69
3260;BME280;68938;48.150;14.004;2023-12-14T08:00:24;97463.22;;;9.65;74.23
3260;BME280;68938;48.150;14.004;2023-12-14T08:02:50;97461.38;;;9.45;74.81
3260;BME280;68938;48.150;14.004;2023-12-14T08:05:17;97453.00;;;9.63;73.88
3260;BME280;68938;48.150;14.004;2023-12-14T08:07:44;97469.66;;;9.75;73.79
3260;BME280;68938;48.150;14.004;2023-12-14T08:10:12;97470.09;;;9.63;73.97
3260;BME280;68938;48.150;14.004;2023-12-14T08:12:38;97481.75;;;9.71;73.56
3260;BME280;68938;48.150;14.004;2023-12-14T08:15:06;97479.31;;;9.43;74.48
3260;BME280;68938;48.150;14.004;2023-12-14T08:17:33;97482.25;;;9.58;74.05
3260;BME280;68938;48.150;14.004;2023-12-14T08:20:00;97489.91;;;9.34;73.77
3260;BME280;68938;48.150;14.004;2023-12-14T08:22:27;97497.25;;;9.43;74.35
3260;BME280;68938;48.150;14.004;2023-12-14T08:24:54;97499.88;;;9.42;73.77
3260;BME280;68938;48.150;14.004;2023-12-14T08:27:20;97506.31;;;9.29;72.82
3260;BME280;68938;48.150;14.004;2023-12-14T08:29:47;97509.72;;;9.53;72.06
3260;BME280;68938;48.150;14.004;2023-12-14T08:32:14;97512.34;;;9.51;71.32
3260;BME280;68938;48.150;14.004;2023-12-14T08:34:41;97515.84;;;9.48;71.72
3260;BME280;68938;48.150;14.004;2023-12-14T08:37:08;97528.25;;;9.59;71.09
3260;BME280;68938;48.150;14.004;2023-12-14T08:39:35;97532.63;;;9.57;71.34
3260;BME280;68938;48.150;14.004;2023-12-14T08:42:02;97539.31;;;9.36;71.88
3260;BME280;68938;48.150;14.004;2023-12-14T08:44:29;97544.47;;;9.60;71.41
3260;BME280;68938;48.150;14.004;2023-12-14T08:46:56;97552.34;;;9.79;70.36
3260;BME280;68938;48.150;14.004;2023-12-14T08:49:22;97542.88;;;9.57;70.80
3260;BME280;68938;48.150;14.004;2023-12-14T08:51:50;97548.97;;;9.77;70.68
3260;BME280;68938;48.150;14.004;2023-12-14T08:54:17;97549.47;;;9.63;71.08
3260;BME280;68938;48.150;14.004;2023-12-14T08:56:44;97560.66;;;9.84;71.06
3260;BME280;68938;48.150;14.004;2023-12-14T08:59:11;97562.97;;;9.91;70.69
3260;BME280;68938;48.150;14.004;2023-12-14T09:01:38;97563.00;;;9.90;70.25
3260;BME280;68938;48.150;14.004;2023-12-14T09:04:06;97569.88;;;9.89;70.90
3260;BME280;68938;48.150;14.004;2023-12-14T09:06:33;97578.16;;;9.96;70.56
3260;BME280;68938;48.150;14.004;2023-12-14T09:09:00;97583.78;;;10.06;70.78
3260;BME280;68938;48.150;14.004;2023-12-14T09:11:27;97581.78;;;9.90;71.37
3260;BME280;68938;48.150;14.004;2023-12-14T09:13:54;97584.03;;;9.98;71.10
3260;BME280;68938;48.150;14.004;2023-12-14T09:16:21;97590.78;;;10.01;71.43
3260;BME280;68938;48.150;14.004;2023-12-14T09:18:48;97598.44;;;10.02;71.02
3260;BME280;68938;48.150;14.004;2023-12-14T09:21:15;97610.06;;;9.87;72.14
3260;BME280;68938;48.150;14.004;2023-12-14T09:23:42;97607.38;;;9.90;72.38
3260;BME280;68938;48.150;14.004;2023-12-14T09:26:09;97613.84;;;10.01;72.47
3260;BME280;68938;48.150;14.004;2023-12-14T09:28:36;97605.63;;;10.16;71.63
3260;BME280;68938;48.150;14.004;2023-12-14T09:31:03;97618.97;;;10.24;71.54
3260;BME280;68938;48.150;14.004;2023-12-14T09:33:34;97619.91;;;10.21;71.81
3260;BME280;68938;48.150;14.004;2023-12-14T09:36:01;97619.69;;;10.29;71.40
3260;BME280;68938;48.150;14.004;2023-12-14T09:38:28;97623.31;;;10.22;72.07
3260;BME280;68938;48.150;14.004;2023-12-14T09:40:54;97626.53;;;10.29;72.19
3260;BME280;68938;48.150;14.004;2023-12-14T09:43:22;97624.94;;;10.26;72.41
3260;BME280;68938;48.150;14.004;2023-12-14T09:45:50;97629.88;;;10.31;72.51
3260;BME280;68938;48.150;14.004;2023-12-14T09:48:17;97629.16;;;10.27;72.98
3260;BME280;68938;48.150;14.004;2023-12-14T09:50:45;97636.91;;;10.26;73.58
3260;BME280;68938;48.150;14.004;2023-12-14T09:53:13;97635.19;;;10.25;73.54
3260;BME280;68938;48.150;14.004;2023-12-14T09:55:40;97644.91;;;10.16;74.11
3260;BME280;68938;48.150;14.004;2023-12-14T09:58:07;97642.63;;;10.09;74.56
3260;BME280;68938;48.150;14.004;2023-12-14T10:00:38;97646.00;;;10.09;75.16
3260;BME280;68938;48.150;14.004;2023-12-14T10:03:21;97646.31;;;10.00;75.43
3260;BME280;68938;48.150;14.004;2023-12-14T10:05:50;97648.78;;;10.03;75.40
3260;BME280;68938;48.150;14.004;2023-12-14T10:08:18;97659.78;;;9.57;76.89
3260;BME280;68938;48.150;14.004;2023-12-14T10:10:48;97660.75;;;9.78;76.04
3260;BME280;68938;48.150;14.004;2023-12-14T10:13:20;97653.28;;;9.96;75.28
3260;BME280;68938;48.150;14.004;2023-12-14T10:15:50;97659.00;;;9.80;75.80
3260;BME280;68938;48.150;14.004;2023-12-14T10:18:25;97656.88;;;10.16;74.81
3260;BME280;68938;48.150;14.004;2023-12-14T10:20:52;97662.13;;;9.88;74.82
3260;BME280;68938;48.150;14.004;2023-12-14T10:23:20;97661.59;;;10.03;74.29
3260;BME280;68938;48.150;14.004;2023-12-14T10:25:47;97661.63;;;10.27;73.53
3260;BME280;68938;48.150;14.004;2023-12-14T10:28:14;97663.31;;;10.28;73.38
3260;BME280;68938;48.150;14.004;2023-12-14T10:30:42;97677.28;;;10.19;73.92
3260;BME280;68938;48.150;14.004;2023-12-14T10:33:09;97679.25;;;10.11;74.40
3260;BME280;68938;48.150;14.004;2023-12-14T10:35:36;97671.81;;;10.28;73.87
3260;BME280;68938;48.150;14.004;2023-12-14T10:38:04;97675.22;;;10.29;73.55
3260;BME280;68938;48.150;14.004;2023-12-14T10:40:33;97678.50;;;10.56;72.90
3260;BME280;68938;48.150;14.004;2023-12-14T10:43:00;97682.31;;;10.46;72.77
3260;BME280;68938;48.150;14.004;2023-12-14T10:45:32;97677.78;;;10.52;72.98
3260;BME280;68938;48.150;14.004;2023-12-14T10:48:00;97684.53;;;10.77;72.51
3260;BME280;68938;48.150;14.004;2023-12-14T10:50:30;97686.31;;;10.53;72.60
3260;BME280;68938;48.150;14.004;2023-12-14T10:52:58;97699.47;;;10.67;72.41
3260;BME280;68938;48.150;14.004;2023-12-14T10:55:38;97696.44;;;10.79;72.24
3260;BME280;68938;48.150;14.004;2023-12-14T10:58:09;97703.38;;;10.77;72.12
3260;BME280;68938;48.150;14.004;2023-12-14T11:00:37;97697.53;;;10.96;70.80
3260;BME280;68938;48.150;14.004;2023-12-14T11:03:05;97708.91;;;10.88;71.64
3260;BME280;68938;48.150;14.004;2023-12-14T11:05:33;97706.41;;;11.09;71.01
3260;BME280;68938;48.150;14.004;2023-12-14T11:08:05;97712.03;;;10.73;71.49
3260;BME280;68938;48.150;14.004;2023-12-14T11:10:40;97712.19;;;10.92;71.54
3260;BME280;68938;48.150;14.004;2023-12-14T11:13:10;97715.97;;;11.05;70.76
3260;BME280;68938;48.150;14.004;2023-12-14T11:15:48;97720.00;;;10.89;71.21
3260;BME280;68938;48.150;14.004;2023-12-14T11:18:21;97717.91;;;10.77;71.40
3260;BME280;68938;48.150;14.004;2023-12-14T11:20:51;97729.50;;;10.87;71.15
3260;BME280;68938;48.150;14.004;2023-12-14T11:25:52;97733.38;;;10.75;71.49
3260;BME280;68938;48.150;14.004;2023-12-14T11:28:27;97734.47;;;10.68;71.07
3260;BME280;68938;48.150;14.004;2023-12-14T11:30:56;97744.94;;;10.85;71.08
3260;BME280;68938;48.150;14.004;2023-12-14T11:33:24;97733.47;;;10.72;71.18
3260;BME280;68938;48.150;14.004;2023-12-14T11:35:51;97737.38;;;10.82;70.94
3260;BME280;68938;48.150;14.004;2023-12-14T11:38:19;97740.97;;;10.77;70.88
3260;BME280;68938;48.150;14.004;2023-12-14T11:40:47;97745.97;;;10.58;71.78
3260;BME280;68938;48.150;14.004;2023-12-14T11:43:14;97750.88;;;10.87;70.87
3260;BME280;68938;48.150;14.004;2023-12-14T11:45:41;97753.53;;;11.08;69.97
3260;BME280;68938;48.150;14.004;2023-12-14T11:48:10;97753.63;;;11.05;69.79
3260;BME280;68938;48.150;14.004;2023-12-14T11:50:39;97752.34;;;10.93;69.92
3260;BME280;68938;48.150;14.004;2023-12-14T11:53:09;97758.00;;;10.79;69.44
3260;BME280;68938;48.150;14.004;2023-12-14T11:55:38;97762.06;;;10.85;69.98
3260;BME280;68938;48.150;14.004;2023-12-14T11:58:07;97759.34;;;10.89;70.16
3260;BME280;68938;48.150;14.004;2023-12-14T12:00:35;97757.94;;;11.04;69.12
3260;BME280;68938;48.150;14.004;2023-12-14T12:03:18;97768.41;;;11.22;69.21
3260;BME280;68938;48.150;14.004;2023-12-14T12:05:51;97759.66;;;11.04;68.26
3260;BME280;68938;48.150;14.004;2023-12-14T12:08:20;97763.63;;;10.89;68.63
3260;BME280;68938;48.150;14.004;2023-12-14T12:10:49;97764.16;;;10.75;69.08
3260;BME280;68938;48.150;14.004;2023-12-14T12:13:18;97759.63;;;10.82;69.34
3260;BME280;68938;48.150;14.004;2023-12-14T12:15:47;97761.34;;;10.81;68.98
3260;BME280;68938;48.150;14.004;2023-12-14T12:18:17;97765.88;;;10.98;68.99
3260;BME280;68938;48.150;14.004;2023-12-14T12:20:45;97769.75;;;11.08;68.20
3260;BME280;68938;48.150;14.004;2023-12-14T12:23:11;97765.84;;;11.22;67.66
3260;BME280;68938;48.150;14.004;2023-12-14T12:25:38;97769.84;;;11.29;67.54
3260;BME280;68938;48.150;14.004;2023-12-14T12:28:06;97774.84;;;11.32;67.82
3260;BME280;68938;48.150;14.004;2023-12-14T12:30:33;97783.00;;;11.20;67.99
3260;BME280;68938;48.150;14.004;2023-12-14T12:33:03;97780.16;;;11.27;67.41
3260;BME280;68938;48.150;14.004;2023-12-14T12:35:31;97788.66;;;11.06;67.28
3260;BME280;68938;48.150;14.004;2023-12-14T12:37:58;97791.41;;;11.01;67.05
3260;BME280;68938;48.150;14.004;2023-12-14T12:40:25;97780.34;;;10.99;67.09
3260;BME280;68938;48.150;14.004;2023-12-14T12:42:52;97784.38;;;11.06;66.55
3260;BME280;68938;48.150;14.004;2023-12-14T12:45:19;97778.28;;;11.31;66.93
3260;BME280;68938;48.150;14.004;2023-12-14T12:47:46;97783.84;;;11.20;67.27
3260;BME280;68938;48.150;14.004;2023-12-14T12:50:14;97780.44;;;11.42;66.44
3260;BME280;68938;48.150;14.004;2023-12-14T12:52:41;97792.09;;;11.28;65.98
3260;BME280;68938;48.150;14.004;2023-12-14T12:55:08;97794.25;;;11.39;65.29
3260;BME280;68938;48.150;14.004;2023-12-14T12:57:36;97793.56;;;11.12;65.79
3260;BME280;68938;48.150;14.004;2023-12-14T13:00:04;97798.22;;;11.02;65.26
3260;BME280;68938;48.150;14.004;2023-12-14T13:02:31;97802.00;;;10.92;65.70
3260;BME280;68938;48.150;14.004;2023-12-14T13:04:58;97803.00;;;11.11;63.96
3260;BME280;68938;48.150;14.004;2023-12-14T13:07:25;97811.97;;;10.76;65.62